South Shaftsbury, Vermont
Current Conditions -  °F | °C
As of 7:54 PM on Friday 28 Nov 2014 (Local Time) from KDDH Reporting Station
Overcast Overcast  
Wind Chill: 16°   Ceiling: 4500
Heat Index: 22°   Visibility: 10mi
Dew Point: 16°   Wind: 5mph
Humidity: 78%   Direction: 280°W
Pressure: 30.17"   Gusts: NA
Location:  42.9815°N, 73.2071°W
Report Text: KDDH 290054Z AUTO 28004KT 10SM OVC045 M06/M09 A3017 RMK AO2 SLP228 T10561089 $
Loading
Personal Weather Stations






























Interactive Weather Map New forecast layout! Learn more

10-Day Weather Forecast

Advertisements
Track Severe Weather on mobile